Connexion S'enregistrer

Connexion à votre compte

Identifiant
Mot de passe
Maintenir la connexion active sur ce site

Créer un compte

Pour valider ce formulaire, vous devez remplir tous les champs.
Nom
Identifiant
Mot de passe
Répétez le mot de passe
Adresse e-mail
Répétez l'adresse e-mail

Nous contacter

 Téléphone : +33 (0)4 79 54 41 81

Coordonnées détaillées et accès : cliquez ici

 
LFLB °C
    Ferienhaus Ostsee
[source: ADDS]
METAR
LFLB 222100Z AUTO 14003KT 9999 FEW058 SCT084 OVC100 17/16 Q1013 =
TAF LFLB 221100Z 2212/2312 18006KT CAVOK TEMPO 2212/2220 4000 SHRA SCT035TCU PROB40 TEMPO 2213/2220 VRB15G25KT 3000 TSRA BKN030CB TEMPO 2220/2305 2500 SHRA BKN014 FEW025CB TEMPO 2305/2308 4000 BR BKN012
TAF
TAF LFLB 221100Z 2212/2312 18006KT CAVOK TEMPO 2212/2220 4000 SHRA SCT035TCU PROB40 TEMPO 2213/2220 VRB15G25KT 3000 TSRA BKN030CB TEMPO 2220/2305 2500 SHRA BKN014 FEW025CB TEMPO 2305/2308 4000 BR BKN012 =
SR / SS: 05:24 / 17:33 UTC (Lever/Coucher du soleil le 2020-09-22)
JSN Boot template designed by JoomlaShine.com